.
WxDataArchive / Data Records for 2011-11-26
2011-11-25 November 2011 2011-11-27

Data Records for Saturday, 26 November 2011

Time	Temp	Chill	HIndex	Humid	Dewpt	 Wind 	HiWind	WindDir	Rain 	Barom 
-----	----	-----	------	-----	-----	------	------	-------	-----	----- 
00:00	52.0	52.0	52.0	59	38.1	1	4	248	0.00	30.011 
00:05	52.2	52.2	52.2	59	38.3	1	4	225	0.00	30.011 
00:10	52.2	52.2	52.2	59	38.3	1	5	225	0.00	30.011 
00:15	52.3	52.3	52.3	58	38.0	1	4	248	0.00	30.007 
00:20	52.3	52.3	52.3	58	38.0	1	5	248	0.00	30.007 
00:25	52.3	52.3	52.3	59	38.4	1	6	270	0.00	30.007 
00:30	52.2	52.2	52.2	59	38.3	1	3	270	0.00	30.004 
00:35	52.0	52.0	52.0	59	38.1	0	4	248	0.00	30.004 
00:40	51.9	51.9	51.9	59	38.0	1	3	248	0.00	30.004 
00:45	51.9	51.9	51.9	59	38.0	1	4	248	0.00	30.003 
00:50	51.7	51.7	51.7	60	38.3	0	3	248	0.00	30.003 
00:55	51.6	51.6	51.6	60	38.2	0	3	248	0.00	30.003 
01:00	51.4	51.4	51.4	60	38.0	0	3	248	0.00	30.003 
01:05	51.3	51.3	51.3	60	37.9	1	4	248	0.00	30.003 
01:10	51.3	51.3	51.3	60	37.9	1	5	248	0.00	30.003 
01:15	51.3	51.3	51.3	60	37.9	0	3	248	0.00	30.002 
01:20	51.3	51.3	51.3	60	37.9	1	6	248	0.00	30.002 
01:25	51.3	51.3	51.3	60	37.9	1	4	248	0.00	30.002 
01:30	51.1	51.1	51.1	60	37.7	1	2	270	0.00	30.000 
01:35	51.1	51.1	51.1	61	38.1	0	4	248	0.00	30.000 
01:40	51.1	51.1	51.1	61	38.1	1	5	248	0.00	30.000 
01:45	51.1	51.1	51.1	61	38.1	0	2	248	0.00	30.001 
01:50	51.0	51.0	51.0	61	38.0	1	3	248	0.00	30.001 
01:55	51.0	51.0	51.0	61	38.0	1	3	225	0.00	30.001 
02:00	51.0	51.0	51.0	61	38.0	0	2	225	0.00	30.008 
02:05	50.8	50.8	50.8	61	37.8	0	5	225	0.00	30.008 
02:10	50.7	50.7	50.7	61	37.7	0	2	225	0.00	30.008 
02:15	50.7	50.7	50.7	61	37.7	0	2	225	0.00	30.012 
02:20	50.5	50.5	50.5	62	38.0	0	1	225	0.00	30.012 
02:25	50.5	50.5	50.5	61	37.6	0	2	225	0.00	30.012 
02:30	50.5	50.5	50.5	62	38.0	0	3	225	0.00	30.012 
02:35	50.4	50.4	50.4	62	37.9	0	2	225	0.00	30.012 
02:40	50.4	50.4	50.4	62	37.9	0	3	225	0.00	30.012 
02:45	50.2	50.2	50.2	62	37.7	0	3	225	0.00	30.015 
02:50	50.2	50.2	50.2	62	37.7	1	3	225	0.00	30.015 
02:55	50.1	50.1	50.1	62	37.6	0	3	225	0.00	30.015 
03:00	50.1	50.1	50.1	62	37.6	0	2	225	0.00	30.016 
03:05	49.9	49.9	49.9	62	37.4	0	3	225	0.00	30.016 
03:10	49.9	49.9	49.9	62	37.4	0	2	225	0.00	30.016 
03:15	49.9	49.9	49.9	62	37.4	0	3	225	0.00	30.015 
03:20	49.8	49.8	49.8	62	37.3	0	4	248	0.00	30.015 
03:25	49.8	49.8	49.8	62	37.3	0	2	248	0.00	30.015 
03:30	49.8	49.8	49.8	62	37.3	0	2	248	0.00	30.014 
03:35	49.8	49.8	49.8	62	37.3	0	2	248	0.00	30.014 
03:40	49.8	49.8	49.8	62	37.3	0	3	248	0.00	30.014 
03:45	49.8	49.8	49.8	62	37.3	0	3	248	0.00	30.009 
03:50	49.9	49.9	49.9	61	37.0	1	4	248	0.00	30.009 
03:55	50.1	50.1	50.1	61	37.2	1	3	248	0.00	30.009 
04:00	50.1	50.1	50.1	61	37.2	1	3	248	0.00	30.006 
04:05	50.1	50.1	50.1	60	36.8	1	2	248	0.00	30.006 
04:10	50.1	50.1	50.1	60	36.8	0	2	248	0.00	30.006 
04:15	50.1	50.1	50.1	60	36.8	0	3	248	0.00	30.007 
04:20	49.9	49.9	49.9	60	36.6	0	2	248	0.00	30.007 
04:25	49.9	49.9	49.9	61	37.0	1	3	248	0.00	30.007 
04:30	49.8	49.8	49.8	61	36.9	0	3	248	0.00	30.007 
04:35	49.9	49.9	49.9	60	36.6	1	4	248	0.00	30.007 
04:40	50.1	50.1	50.1	60	36.8	1	3	248	0.00	30.007 
04:45	50.2	50.2	50.2	60	36.9	1	4	225	0.00	30.010 
04:50	50.2	50.2	50.2	60	36.9	1	2	225	0.00	30.010 
04:55	50.2	50.2	50.2	59	36.4	1	4	248	0.00	30.010 
05:00	50.2	50.2	50.2	59	36.4	1	4	248	0.00	30.008 
05:05	50.2	50.2	50.2	59	36.4	1	4	248	0.00	30.008 
05:10	50.2	50.2	50.2	60	36.9	1	4	248	0.00	30.008 
05:15	50.4	50.4	50.4	59	36.6	1	3	248	0.00	30.007 
05:20	50.4	50.4	50.4	59	36.6	1	3	270	0.00	30.007 
05:25	50.4	50.4	50.4	59	36.6	1	5	270	0.00	30.007 
05:30	50.5	50.5	50.5	59	36.7	1	4	225	0.00	30.004 
05:35	50.7	50.7	50.7	59	36.9	1	7	248	0.00	30.004 
05:40	50.7	50.7	50.7	58	36.5	1	4	248	0.00	30.004 
05:45	50.8	50.8	50.8	58	36.6	1	3	270	0.00	30.003 
05:50	51.0	51.0	51.0	58	36.7	1	4	248	0.00	30.003 
05:55	51.0	51.0	51.0	58	36.7	1	4	292	0.00	30.003 
06:00	51.0	51.0	51.0	58	36.7	1	4	248	0.00	30.004 
06:05	51.1	51.1	51.1	58	36.8	1	5	248	0.00	30.004 
06:10	51.1	51.1	51.1	58	36.8	1	3	248	0.00	30.004 
06:15	51.0	51.0	51.0	58	36.7	0	3	0	0.00	30.006 
06:20	51.0	51.0	51.0	58	36.7	1	4	248	0.00	30.006 
06:25	50.8	50.8	50.8	59	37.0	1	4	248	0.00	30.006 
06:30	50.8	50.8	50.8	59	37.0	0	2	248	0.00	30.004 
06:35	50.8	50.8	50.8	60	37.4	1	4	248	0.00	30.004 
06:40	50.8	50.8	50.8	60	37.4	1	4	248	0.00	30.004 
06:45	50.7	50.7	50.7	60	37.3	0	1	248	0.00	30.007 
06:50	50.5	50.5	50.5	61	37.6	0	1	248	0.00	30.007 
06:55	50.2	50.2	50.2	61	37.3	0	2	248	0.00	30.007 
07:00	50.1	50.1	50.1	62	37.6	0	2	248	0.00	30.009 
07:05	49.8	49.8	49.8	63	37.7	0	1	248	0.00	30.009 
07:10	49.5	49.5	49.5	64	37.8	0	1	248	0.00	30.009 
07:15	49.4	49.4	49.4	65	38.1	0	3	248	0.00	30.010 
07:20	49.2	49.2	49.2	65	37.9	0	2	248	0.00	30.010 
07:25	49.4	49.4	49.4	65	38.1	0	4	248	0.00	30.010 
07:30	49.4	49.4	49.4	66	38.5	0	2	248	0.00	30.009 
07:35	49.4	49.4	49.4	66	38.5	0	2	248	0.00	30.009 
07:40	49.4	49.4	49.4	66	38.5	0	2	248	0.00	30.009 
07:45	49.4	49.4	49.4	67	38.9	0	1	248	0.00	30.014 
07:50	49.4	49.4	49.4	67	38.9	0	3	248	0.00	30.014 
07:55	49.4	49.4	49.4	67	38.9	0	3	248	0.00	30.014 
08:00	49.5	49.5	49.5	68	39.4	0	3	248	0.00	30.013 
08:05	49.4	49.4	49.4	69	39.7	0	1	248	0.00	30.013 
08:10	49.2	49.2	49.2	69	39.5	0	3	248	0.00	30.013 
08:15	49.2	49.2	49.2	69	39.5	0	2	112	0.00	30.011 
08:20	49.4	49.4	49.4	69	39.7	0	1	112	0.00	30.011 
08:25	49.4	49.4	49.4	70	40.0	0	2	112	0.00	30.011 
08:30	49.5	49.5	49.5	70	40.1	0	1	112	0.00	30.015 
08:35	49.6	49.6	49.6	70	40.2	1	3	112	0.00	30.015 
08:40	49.8	49.8	49.8	71	40.8	0	2	112	0.00	30.015 
08:45	50.1	50.1	50.1	71	41.1	0	2	112	0.00	30.018 
08:50	50.4	50.4	50.4	70	41.0	0	3	270	0.00	30.018 
08:55	50.5	50.5	50.5	70	41.1	1	4	270	0.00	30.018 
09:00	50.8	50.8	50.8	70	41.4	1	6	68	0.00	30.015 
09:05	51.0	51.0	51.0	70	41.6	0	2	338	0.00	30.015 
09:10	51.1	51.1	51.1	70	41.7	1	3	292	0.00	30.015 
09:15	51.3	51.3	51.3	70	41.9	1	6	292	0.00	30.013 
09:20	51.4	51.4	51.4	70	41.9	1	4	112	0.00	30.013 
09:25	51.7	51.7	51.7	70	42.2	1	3	112	0.00	30.013 
09:30	52.0	52.0	52.0	70	42.5	1	4	90	0.00	30.011 
09:35	52.3	52.3	52.3	70	42.8	1	9	68	0.00	30.011 
09:40	52.5	52.5	52.5	70	43.0	1	3	315	0.00	30.011 
09:45	52.8	52.8	52.8	70	43.3	1	4	0	0.00	30.014 
09:50	53.1	53.1	53.1	70	43.6	1	4	135	0.00	30.014 
09:55	53.2	53.2	53.2	70	43.7	1	3	90	0.00	30.014 
10:00	53.5	53.5	53.5	70	44.0	1	4	112	0.00	30.008 
10:05	53.6	53.6	53.6	70	44.1	1	4	248	0.00	30.008 
10:10	54.2	54.2	54.2	70	44.6	1	4	90	0.00	30.008 
10:15	54.7	54.7	54.7	69	44.7	2	10	225	0.00	30.009 
10:20	55.0	55.0	55.0	69	45.0	2	10	248	0.00	30.009 
10:25	55.0	55.0	55.0	69	45.0	1	5	248	0.00	30.009 
10:30	55.1	55.1	55.1	69	45.1	2	6	338	0.00	30.008 
10:35	55.4	55.4	55.4	69	45.4	3	7	248	0.00	30.008 
10:40	55.7	55.7	55.7	68	45.3	1	5	292	0.00	30.008 
10:45	56.0	56.0	56.0	67	45.2	3	7	248	0.00	30.014 
10:50	56.5	56.5	56.5	68	46.1	1	9	248	0.00	30.014 
10:55	56.7	56.7	56.7	67	45.9	2	7	248	0.00	30.014 
11:00	57.0	57.0	57.0	67	46.2	2	9	248	0.00	30.011 
11:05	57.3	57.3	57.3	65	45.6	3	11	248	0.00	30.011 
11:10	57.6	57.6	57.6	65	45.9	3	7	248	0.00	30.011 
11:15	57.8	57.8	57.8	65	46.1	2	10	248	0.00	29.999 
11:20	58.0	58.0	58.0	65	46.3	3	9	248	0.00	29.999 
11:25	58.3	58.3	58.3	65	46.6	2	6	248	0.00	29.999 
11:30	58.4	58.4	58.4	64	46.3	3	6	270	0.00	29.997 
11:35	58.7	58.7	58.7	65	47.0	1	5	248	0.00	29.997 
11:40	58.9	58.9	58.9	64	46.7	2	6	248	0.00	29.997 
11:45	59.0	59.0	59.0	63	46.4	2	7	248	0.00	29.989 
11:50	59.2	59.2	59.2	64	47.0	2	4	270	0.00	29.989 
11:55	59.2	59.2	59.2	64	47.0	2	6	270	0.00	29.989 
12:00	59.5	59.5	59.5	64	47.3	2	6	248	0.00	29.981 
12:05	59.6	59.6	59.6	64	47.4	2	5	248	0.00	29.981 
12:10	59.8	59.8	59.8	63	47.2	2	5	248	0.00	29.981 
12:15	60.1	60.1	60.1	63	47.5	2	6	270	0.00	29.972 
12:20	60.2	60.2	60.2	63	47.6	2	5	315	0.00	29.972 
12:25	60.4	60.4	60.4	63	47.7	2	5	248	0.00	29.972 
12:30	60.5	60.5	60.5	63	47.8	2	6	225	0.00	29.966 
12:35	60.9	60.9	60.9	63	48.2	2	7	248	0.00	29.966 
12:40	61.0	61.0	61.0	62	47.9	2	6	248	0.00	29.966 
12:45	61.3	61.3	61.3	63	48.6	2	9	248	0.00	29.963 
12:50	61.6	61.6	61.6	62	48.4	2	11	248	0.00	29.963 
12:55	62.0	62.0	62.0	62	48.8	1	5	248	0.00	29.963 
13:00	62.0	62.0	62.0	61	48.4	2	5	248	0.00	29.949 
13:05	62.0	62.0	62.0	61	48.4	2	6	225	0.00	29.949 
13:10	62.0	62.0	62.0	62	48.8	2	7	202	0.00	29.949 
13:15	62.3	62.3	62.3	62	49.1	2	5	248	0.00	29.945 
13:20	62.7	62.7	62.7	62	49.5	1	4	68	0.00	29.945 
13:25	63.2	63.2	63.2	60	49.1	3	7	270	0.00	29.945 
13:30	63.5	63.5	63.5	61	49.8	2	6	248	0.00	29.932 
13:35	63.7	63.7	63.7	60	49.5	3	9	90	0.00	29.932 
13:40	63.5	63.5	63.5	59	48.9	3	13	248	0.00	29.932 
13:45	63.4	63.4	63.4	60	49.3	2	8	248	0.00	29.930 
13:50	63.4	63.4	63.4	59	48.8	3	9	248	0.00	29.930 
13:55	63.4	63.4	63.4	59	48.8	2	5	248	0.00	29.930 
14:00	63.7	63.7	63.7	59	49.1	2	7	248	0.00	29.927 
14:05	63.9	63.9	63.9	59	49.3	2	7	248	0.00	29.927 
14:10	63.7	63.7	63.7	58	48.6	3	9	270	0.00	29.927 
14:15	63.5	63.5	63.5	58	48.5	2	7	270	0.00	29.924 
14:20	63.2	63.2	63.2	59	48.6	2	18	248	0.00	29.924 
14:25	63.1	63.1	63.1	59	48.5	2	10	270	0.00	29.924 
14:30	63.1	63.1	63.1	59	48.5	2	9	248	0.00	29.922 
14:35	63.2	63.2	63.2	59	48.6	2	9	248	0.00	29.922 
14:40	63.2	63.2	63.2	58	48.2	2	6	248	0.00	29.922 
14:45	63.2	63.2	63.2	59	48.6	1	4	248	0.00	29.916 
14:50	63.4	63.4	63.4	59	48.8	1	4	270	0.00	29.916 
14:55	63.4	63.4	63.4	58	48.4	3	10	248	0.00	29.916 
15:00	63.4	63.4	63.4	58	48.4	2	5	292	0.00	29.915 
15:05	63.4	63.4	63.4	58	48.4	2	7	292	0.00	29.915 
15:10	63.2	63.2	63.2	59	48.6	1	6	248	0.00	29.915 
15:15	63.1	63.1	63.1	59	48.5	2	5	338	0.00	29.911 
15:20	62.9	62.9	62.9	58	47.9	2	5	248	0.00	29.911 
15:25	62.9	62.9	62.9	59	48.3	1	5	270	0.00	29.911 
15:30	63.1	63.1	63.1	59	48.5	2	5	112	0.00	29.904 
15:35	63.2	63.2	63.2	58	48.2	2	7	248	0.00	29.904 
15:40	63.1	63.1	63.1	58	48.1	2	7	248	0.00	29.904 
15:45	62.9	62.9	62.9	58	47.9	2	6	248	0.00	29.912 
15:50	62.7	62.7	62.7	59	48.2	1	4	248	0.00	29.912 
15:55	62.6	62.6	62.6	58	47.6	3	7	248	0.00	29.912 
16:00	62.6	62.6	62.6	59	48.1	1	3	248	0.00	29.907 
16:05	62.4	62.4	62.4	58	47.4	2	6	90	0.00	29.907 
16:10	62.4	62.4	62.4	58	47.4	2	9	90	0.00	29.907 
16:15	62.4	62.4	62.4	58	47.4	3	11	248	0.00	29.910 
16:20	62.3	62.3	62.3	58	47.3	1	5	248	0.00	29.910 
16:25	62.3	62.3	62.3	59	47.8	1	4	225	0.00	29.910 
16:30	62.1	62.1	62.1	59	47.6	1	6	270	0.00	29.905 
16:35	62.0	62.0	62.0	60	48.0	1	5	315	0.00	29.905 
16:40	61.8	61.8	61.8	60	47.8	1	6	248	0.00	29.905 
16:45	61.8	61.8	61.8	61	48.2	1	4	248	0.00	29.907 
16:50	61.5	61.5	61.5	61	47.9	0	2	248	0.00	29.907 
16:55	61.3	61.3	61.3	62	48.2	1	4	248	0.00	29.907 
17:00	61.3	61.3	61.3	62	48.2	1	6	270	0.00	29.906 
17:05	61.3	61.3	61.3	61	47.7	2	5	22	0.00	29.906 
17:10	61.2	61.2	61.2	62	48.1	0	2	248	0.00	29.906 
17:15	61.2	61.2	61.2	62	48.1	1	7	248	0.00	29.906 
17:20	61.2	61.2	61.2	62	48.1	1	5	112	0.00	29.906 
17:25	61.2	61.2	61.2	62	48.1	1	2	270	0.00	29.906 
17:30	61.0	61.0	61.0	62	47.9	1	4	248	0.00	29.904 
17:35	61.0	61.0	61.0	62	47.9	1	4	248	0.00	29.904 
17:40	60.9	60.9	60.9	62	47.8	0	2	248	0.00	29.904 
17:45	60.9	60.9	60.9	63	48.2	0	2	248	0.00	29.903 
17:50	60.7	60.7	60.7	63	48.0	0	3	248	0.00	29.903 
17:55	60.5	60.5	60.5	65	48.7	1	3	112	0.00	29.903 
18:00	60.4	60.4	60.4	65	48.6	1	6	112	0.00	29.897 
18:05	60.1	60.1	60.1	65	48.3	1	3	112	0.00	29.897 
18:10	60.1	60.1	60.1	65	48.3	0	3	112	0.00	29.897 
18:15	60.1	60.1	60.1	65	48.3	2	7	315	0.00	29.900 
18:20	60.1	60.1	60.1	65	48.3	2	6	90	0.00	29.900 
18:25	60.1	60.1	60.1	66	48.7	2	6	248	0.00	29.900 
18:30	60.1	60.1	60.1	66	48.7	1	4	248	0.00	29.905 
18:35	60.1	60.1	60.1	67	49.1	1	6	248	0.00	29.905 
18:40	59.8	59.8	59.8	69	49.6	1	6	90	0.00	29.905 
18:45	59.5	59.5	59.5	69	49.3	1	6	68	0.00	29.899 
18:50	59.2	59.2	59.2	69	49.0	1	3	90	0.00	29.899 
18:55	59.0	59.0	59.0	70	49.2	0	4	90	0.00	29.899 
19:00	59.0	59.0	59.0	70	49.2	0	2	90	0.00	29.896 
19:05	58.9	58.9	58.9	69	48.7	0	3	90	0.00	29.896 
19:10	59.0	59.0	59.0	69	48.8	0	2	248	0.00	29.896 
19:15	59.0	59.0	59.0	69	48.8	0	2	248	0.00	29.890 
19:20	59.0	59.0	59.0	69	48.8	0	2	248	0.00	29.890 
19:25	59.0	59.0	59.0	69	48.8	0	2	248	0.00	29.890 
19:30	59.0	59.0	59.0	68	48.5	0	3	135	0.00	29.889 
19:35	59.0	59.0	59.0	67	48.1	0	2	158	0.00	29.889 
19:40	59.2	59.2	59.2	67	48.2	1	3	112	0.00	29.889 
19:45	59.3	59.3	59.3	66	47.9	1	3	90	0.00	29.886 
19:50	59.3	59.3	59.3	66	47.9	1	5	90	0.00	29.886 
19:55	59.5	59.5	59.5	65	47.7	1	3	90	0.00	29.886 
20:00	59.5	59.5	59.5	65	47.7	1	4	112	0.00	29.878 
20:05	59.5	59.5	59.5	65	47.7	1	4	112	0.00	29.878 
20:10	59.5	59.5	59.5	65	47.7	1	3	112	0.00	29.878 
20:15	59.5	59.5	59.5	66	48.1	1	2	112	0.00	29.872 
20:20	59.3	59.3	59.3	68	48.7	1	4	90	0.00	29.872 
20:25	59.0	59.0	59.0	69	48.8	1	4	90	0.00	29.872 
20:30	58.9	58.9	58.9	69	48.7	2	5	112	0.00	29.862 
20:35	58.9	58.9	58.9	69	48.7	2	6	90	0.00	29.862 
20:40	58.7	58.7	58.7	69	48.6	1	3	112	0.00	29.862 
20:45	58.6	58.6	58.6	69	48.5	1	5	112	0.00	29.856 
20:50	58.6	58.6	58.6	68	48.1	2	4	90	0.00	29.856 
20:55	58.7	58.7	58.7	68	48.2	1	4	90	0.00	29.856 
21:00	58.9	58.9	58.9	67	48.0	2	5	112	0.00	29.852 
21:05	59.0	59.0	59.0	67	48.1	2	4	90	0.00	29.852 
21:10	59.0	59.0	59.0	67	48.1	2	5	90	0.00	29.852 
21:15	59.2	59.2	59.2	66	47.8	3	9	112	0.00	29.846 
21:20	59.3	59.3	59.3	66	47.9	2	9	112	0.00	29.846 
21:25	59.3	59.3	59.3	65	47.5	3	7	90	0.00	29.846 
21:30	59.3	59.3	59.3	65	47.5	3	11	112	0.00	29.843 
21:35	59.3	59.3	59.3	65	47.5	3	7	112	0.00	29.843 
21:40	59.5	59.5	59.5	65	47.7	2	6	90	0.00	29.843 
21:45	59.5	59.5	59.5	65	47.7	3	11	68	0.00	29.847 
21:50	59.5	59.5	59.5	66	48.1	2	6	135	0.00	29.847 
21:55	59.5	59.5	59.5	65	47.7	2	6	90	0.00	29.847 
22:00	59.3	59.3	59.3	66	47.9	2	7	90	0.00	29.851 
22:05	59.3	59.3	59.3	66	47.9	2	7	112	0.00	29.851 
22:10	59.2	59.2	59.2	67	48.2	3	11	90	0.00	29.851 
22:15	59.0	59.0	59.0	69	48.8	2	6	90	0.00	29.843 
22:20	58.6	58.6	58.6	70	48.8	2	9	112	0.00	29.843 
22:25	58.3	58.3	58.3	71	48.9	1	8	68	0.00	29.843 
22:30	58.1	58.1	58.1	71	48.7	1	5	112	0.00	29.837 
22:35	58.1	58.1	58.1	71	48.7	2	4	112	0.00	29.837 
22:40	58.4	58.4	58.4	70	48.7	3	8	90	0.00	29.837 
22:45	58.6	58.6	58.6	70	48.8	3	6	90	0.00	29.831 
22:50	58.7	58.7	58.7	70	48.9	2	7	90	0.00	29.831 
22:55	58.7	58.7	58.7	70	48.9	2	5	90	0.00	29.831 
23:00	58.7	58.7	58.7	69	48.6	2	7	90	0.00	29.819 
23:05	58.7	58.7	58.7	70	48.9	2	9	68	0.00	29.819 
23:10	58.7	58.7	58.7	70	48.9	2	5	90	0.00	29.819 
23:15	58.6	58.6	58.6	70	48.8	2	4	90	0.00	29.821 
23:20	58.6	58.6	58.6	70	48.8	2	5	90	0.00	29.821 
23:25	58.6	58.6	58.6	70	48.8	2	5	90	0.00	29.821 
23:30	58.6	58.6	58.6	70	48.8	2	5	112	0.00	29.817 
23:35	58.6	58.6	58.6	70	48.8	1	5	90	0.00	29.817 
23:40	58.4	58.4	58.4	70	48.7	1	6	90	0.00	29.817 
23:45	58.4	58.4	58.4	70	48.7	1	3	90	0.00	29.820 
23:50	58.4	58.4	58.4	70	48.7	1	3	112	0.00	29.820 
23:55	58.3	58.3	58.3	71	48.9	1	5	112	0.00	29.820 

CoCoRaHS
IN-AL-39
A2 Web Hosting
Creative Commons License
GoDaddy
search engine by freefind advanced

loaded 2018-11-17 12:02:24 • last modified 2010-11-18 10:43:29
Privacy PolicyDisclaimer
• wx.awcolley.com is powered by PmWiki v.2002016 •
• all content (unless otherwise noted) © 2018 A W Colley